Time;durP1;ratioP1;P1;durP2;ratioP2;P2;SDS_P1;SDS_P2;PMS_P1;PMS_P2;Temp;Humidity;BMP_temperature;BMP_pressure;BME280_temperature;BME280_humidity;BME280_pressure;Samples;Min_cycle;Max_cycle;Signal;HPM_P1;HPM_P2
2021/12/31 00:01:12;;;;;;;12.17;8.60;;;7.70;99.90;;;;;;5093036;28;20212;-69
2021/12/31 00:03:39;;;;;;;16.37;9.80;;;7.70;99.90;;;;;;5093022;28;20219;-69
2021/12/31 00:06:06;;;;;;;14.80;9.80;;;7.70;99.90;;;;;;5092564;28;20203;-67
2021/12/31 00:08:33;;;;;;;13.47;8.77;;;7.70;99.90;;;;;;5092654;28;20204;-68
2021/12/31 00:11:01;;;;;;;15.00;9.90;;;7.70;99.90;;;;;;5092845;28;20316;-69
2021/12/31 00:13:28;;;;;;;12.73;9.37;;;7.70;99.90;;;;;;5092798;28;20595;-68
2021/12/31 00:15:55;;;;;;;15.17;9.90;;;7.70;99.90;;;;;;5092570;28;20215;-68
2021/12/31 00:18:22;;;;;;;16.97;10.60;;;7.70;99.90;;;;;;5093804;28;20226;-67
2021/12/31 00:20:49;;;;;;;15.30;10.53;;;7.70;99.90;;;;;;5093272;28;20599;-68
2021/12/31 00:23:18;;;;;;;16.03;10.77;;;7.70;99.90;;;;;;5093321;28;20208;-69
2021/12/31 00:25:45;;;;;;;16.60;10.57;;;7.60;99.90;;;;;;5094748;28;20201;-66
2021/12/31 00:28:13;;;;;;;16.67;11.60;;;7.70;99.90;;;;;;5092510;28;20247;-68
2021/12/31 00:30:41;;;;;;;18.57;11.67;;;7.60;99.90;;;;;;5092267;28;20208;-68
2021/12/31 00:33:08;;;;;;;17.53;10.83;;;7.60;99.90;;;;;;5092842;28;20216;-67
2021/12/31 00:35:37;;;;;;;19.80;11.93;;;7.60;99.90;;;;;;5091772;28;20200;-68
2021/12/31 00:38:05;;;;;;;19.80;11.77;;;7.60;99.90;;;;;;5090070;28;20227;-68
2021/12/31 00:40:32;;;;;;;18.03;11.53;;;7.60;99.90;;;;;;5085843;28;20216;-67
2021/12/31 00:42:59;;;;;;;18.30;12.03;;;7.60;99.90;;;;;;5092599;28;20208;-67
2021/12/31 00:45:27;;;;;;;19.30;12.50;;;7.60;99.90;;;;;;5092440;28;20208;-68
2021/12/31 00:47:54;;;;;;;21.07;12.63;;;7.60;99.90;;;;;;5093407;28;20295;-68
2021/12/31 00:50:21;;;;;;;20.13;12.23;;;7.60;99.90;;;;;;5093286;28;20205;-68
2021/12/31 00:52:48;;;;;;;20.00;12.23;;;7.60;99.90;;;;;;5093055;28;20628;-68
2021/12/31 00:55:15;;;;;;;19.60;12.83;;;7.60;99.90;;;;;;5093359;28;20201;-68
2021/12/31 00:57:42;;;;;;;19.87;12.60;;;7.60;99.90;;;;;;5093005;28;20291;-68
2021/12/31 01:00:13;;;;;;;22.40;13.10;;;7.50;99.90;;;;;;5092748;28;20204;-68
2021/12/31 01:02:43;;;;;;;21.17;12.70;;;7.50;99.90;;;;;;5091619;28;20212;-68
2021/12/31 01:05:11;;;;;;;24.60;14.23;;;7.50;99.90;;;;;;5092378;28;20200;-67
2021/12/31 01:07:38;;;;;;;27.67;14.67;;;7.50;99.90;;;;;;5092318;28;20400;-69
2021/12/31 01:10:06;;;;;;;25.63;14.77;;;7.40;99.90;;;;;;5096528;28;20675;-69
2021/12/31 01:12:34;;;;;;;27.30;14.20;;;7.40;99.90;;;;;;5099868;28;20236;-68
2021/12/31 01:15:03;;;;;;;21.50;14.10;;;7.40;99.90;;;;;;5092026;28;20204;-68
2021/12/31 01:17:47;;;;;;;32.30;14.07;;;7.40;99.90;;;;;;5077953;28;20211;-68
2021/12/31 01:20:17;;;;;;;26.03;14.03;;;7.30;99.90;;;;;;5091943;28;20401;-68
2021/12/31 01:22:44;;;;;;;27.37;14.20;;;7.30;99.90;;;;;;5091433;28;20234;-68
2021/12/31 01:25:11;;;;;;;23.43;14.03;;;7.30;99.90;;;;;;5091116;28;20211;-67
2021/12/31 01:27:39;;;;;;;25.70;13.63;;;7.30;99.90;;;;;;5092501;28;20760;-68
2021/12/31 01:30:08;;;;;;;26.00;13.57;;;7.30;99.90;;;;;;5092302;28;20216;-68
2021/12/31 01:32:35;;;;;;;23.87;13.47;;;7.20;99.90;;;;;;5092137;28;20201;-68
2021/12/31 01:35:02;;;;;;;26.37;12.67;;;7.20;99.90;;;;;;5092890;28;20184;-68
2021/12/31 01:37:31;;;;;;;26.43;13.90;;;7.20;99.90;;;;;;5092540;28;20208;-68
2021/12/31 01:39:57;;;;;;;22.27;13.77;;;7.20;99.90;;;;;;5091022;28;20226;-68
2021/12/31 01:42:29;;;;;;;23.77;14.07;;;7.20;99.90;;;;;;5092762;28;20319;-68
2021/12/31 01:45:02;;;;;;;28.07;13.80;;;7.20;99.90;;;;;;5093260;28;20234;-68
2021/12/31 01:47:45;;;;;;;27.93;13.57;;;7.20;99.90;;;;;;5092994;28;20193;-69
2021/12/31 01:50:12;;;;;;;42.50;14.70;;;7.20;99.90;;;;;;5092361;28;20201;-68
2021/12/31 01:52:40;;;;;;;28.60;13.23;;;7.20;99.90;;;;;;5092553;28;20205;-69
2021/12/31 01:55:10;;;;;;;33.90;14.60;;;7.10;99.90;;;;;;5091293;28;20205;-69
2021/12/31 01:57:38;;;;;;;39.10;14.73;;;7.10;99.90;;;;;;5097156;28;20227;-69
2021/12/31 02:00:06;;;;;;;38.87;13.83;;;7.10;99.90;;;;;;5095459;28;20323;-69
2021/12/31 02:02:33;;;;;;;33.60;14.53;;;7.10;99.90;;;;;;5091926;28;20292;-68
2021/12/31 02:05:01;;;;;;;36.43;12.90;;;7.00;99.90;;;;;;5092209;28;20201;-69
2021/12/31 02:07:27;;;;;;;32.33;13.87;;;7.10;99.90;;;;;;5092409;28;20216;-68
2021/12/31 02:09:56;;;;;;;26.20;12.60;;;7.10;99.90;;;;;;5092643;28;20800;-69
2021/12/31 02:12:23;;;;;;;30.07;12.57;;;7.10;99.90;;;;;;5096861;28;20206;-68
2021/12/31 02:14:51;;;;;;;52.00;12.83;;;7.10;99.90;;;;;;5100028;28;20212;-67
2021/12/31 02:17:18;;;;;;;35.57;12.83;;;7.10;99.90;;;;;;5093499;28;20227;-68
2021/12/31 02:19:56;;;;;;;29.53;12.50;;;7.10;99.90;;;;;;5092340;28;20224;-67
2021/12/31 02:22:27;;;;;;;32.27;12.83;;;7.10;99.90;;;;;;5091543;28;20200;-68
2021/12/31 02:24:55;;;;;;;47.30;13.20;;;7.10;99.90;;;;;;5091893;28;20210;-68
2021/12/31 02:27:22;;;;;;;56.10;14.10;;;7.20;99.90;;;;;;5090803;28;20204;-68
2021/12/31 02:29:49;;;;;;;53.53;14.33;;;7.20;99.90;;;;;;5090333;28;20232;-67
2021/12/31 02:32:16;;;;;;;47.77;12.77;;;7.20;99.90;;;;;;5090177;28;20219;-68
2021/12/31 02:34:44;;;;;;;53.90;13.67;;;7.20;99.90;;;;;;5089648;28;20554;-68
2021/12/31 02:37:12;;;;;;;43.23;13.80;;;7.20;99.90;;;;;;5090173;28;20208;-68
2021/12/31 02:39:41;;;;;;;22.63;11.50;;;7.20;99.90;;;;;;5089523;28;20224;-68
2021/12/31 02:42:08;;;;;;;27.97;12.97;;;7.20;99.90;;;;;;5090876;28;20208;-69
2021/12/31 02:44:35;;;;;;;32.30;11.77;;;7.20;99.90;;;;;;5090456;28;20200;-68
2021/12/31 02:47:05;;;;;;;29.47;12.07;;;7.20;99.90;;;;;;5090693;28;20197;-68
2021/12/31 02:49:35;;;;;;;33.10;12.33;;;7.20;99.90;;;;;;5092222;28;20292;-67
2021/12/31 02:52:03;;;;;;;29.70;12.80;;;7.20;99.90;;;;;;5076289;28;20201;-68
2021/12/31 02:54:33;;;;;;;26.83;12.30;;;7.20;99.90;;;;;;5090889;28;20733;-68
2021/12/31 02:57:00;;;;;;;32.50;13.33;;;7.20;99.90;;;;;;5086843;28;20220;-68
2021/12/31 02:59:27;;;;;;;33.50;12.43;;;7.30;99.90;;;;;;5090630;28;20300;-68
2021/12/31 03:01:56;;;;;;;22.10;12.10;;;7.30;99.90;;;;;;5091918;28;20317;-68
2021/12/31 03:04:25;;;;;;;17.90;10.50;;;7.30;99.90;;;;;;5106040;28;20210;-68
2021/12/31 03:06:53;;;;;;;29.67;12.47;;;7.30;99.90;;;;;;5096585;28;20619;-68
2021/12/31 03:09:23;;;;;;;28.50;11.07;;;7.30;99.90;;;;;;5094803;28;20196;-69
2021/12/31 03:11:55;;;;;;;32.13;11.93;;;7.30;99.90;;;;;;5093696;28;20250;-69
2021/12/31 03:14:23;;;;;;;23.37;11.93;;;7.40;99.90;;;;;;5094479;28;20219;-68
2021/12/31 03:16:50;;;;;;;20.63;11.50;;;7.40;99.90;;;;;;5093564;28;20215;-68
2021/12/31 03:19:20;;;;;;;31.03;11.93;;;7.40;99.90;;;;;;5093707;28;20229;-67
2021/12/31 03:21:46;;;;;;;19.10;10.70;;;7.40;99.90;;;;;;5094075;28;20209;-68
2021/12/31 03:24:14;;;;;;;24.90;11.40;;;7.40;99.90;;;;;;5093806;28;20197;-68
2021/12/31 03:26:41;;;;;;;45.97;12.17;;;7.40;99.90;;;;;;5093989;28;20216;-68
2021/12/31 03:29:09;;;;;;;30.10;11.60;;;7.50;99.90;;;;;;5093762;28;20764;-68
2021/12/31 03:31:36;;;;;;;19.67;11.33;;;7.50;99.90;;;;;;5093612;28;20217;-68
2021/12/31 03:34:02;;;;;;;24.83;11.50;;;7.50;99.90;;;;;;5094939;28;20291;-69
2021/12/31 03:36:29;;;;;;;22.40;11.30;;;7.50;99.90;;;;;;5096949;28;20201;-69
2021/12/31 03:38:56;;;;;;;24.73;11.37;;;7.50;99.90;;;;;;5093503;28;20234;-67
2021/12/31 03:41:23;;;;;;;26.97;11.53;;;7.50;99.90;;;;;;5088020;28;20564;-68
2021/12/31 03:43:50;;;;;;;38.70;12.77;;;7.60;99.90;;;;;;5092839;28;20228;-68
2021/12/31 03:46:18;;;;;;;32.27;12.37;;;7.60;99.90;;;;;;5092482;28;20220;-68
2021/12/31 03:48:45;;;;;;;43.63;13.20;;;7.60;99.90;;;;;;5092856;28;20295;-67
2021/12/31 03:51:12;;;;;;;26.53;11.77;;;7.60;99.90;;;;;;5097496;28;20199;-68
2021/12/31 03:53:39;;;;;;;32.87;12.50;;;7.60;99.90;;;;;;5093017;28;20740;-68
2021/12/31 03:56:05;;;;;;;21.83;11.33;;;7.60;99.90;;;;;;5092968;28;20243;-69
2021/12/31 03:58:33;;;;;;;22.83;10.33;;;7.60;99.90;;;;;;5093087;28;20642;-68
2021/12/31 04:00:59;;;;;;;27.40;11.27;;;7.60;99.90;;;;;;5093487;28;20215;-68
2021/12/31 04:03:28;;;;;;;15.70;9.97;;;7.60;99.90;;;;;;5092970;28;20243;-70
2021/12/31 04:05:54;;;;;;;18.67;9.97;;;7.70;99.90;;;;;;5093536;28;20201;-68
2021/12/31 04:08:21;;;;;;;26.60;10.67;;;7.70;99.90;;;;;;5089455;28;20201;-68
2021/12/31 04:10:48;;;;;;;23.47;10.47;;;7.70;99.90;;;;;;5092848;28;20209;-67
2021/12/31 04:13:15;;;;;;;20.83;9.70;;;7.70;99.90;;;;;;5092425;28;20215;-68
2021/12/31 04:15:42;;;;;;;22.27;9.67;;;7.60;99.90;;;;;;5092506;28;20295;-68
2021/12/31 04:18:09;;;;;;;45.40;12.47;;;7.70;99.90;;;;;;5092419;28;20687;-68
2021/12/31 04:20:40;;;;;;;26.10;11.83;;;7.70;99.90;;;;;;5092354;28;20315;-67
2021/12/31 04:23:13;;;;;;;24.23;10.60;;;7.70;99.90;;;;;;5092927;28;20674;-68
2021/12/31 04:25:40;;;;;;;21.20;10.10;;;7.70;99.90;;;;;;5092208;28;20200;-68
2021/12/31 04:28:07;;;;;;;34.83;10.97;;;7.80;99.90;;;;;;5091964;28;20228;-68
2021/12/31 04:30:34;;;;;;;22.60;10.87;;;7.80;99.90;;;;;;5092151;28;20199;-68
2021/12/31 04:33:01;;;;;;;49.13;12.73;;;7.80;99.90;;;;;;5092390;28;20207;-69
2021/12/31 04:35:29;;;;;;;26.47;10.97;;;7.80;99.90;;;;;;5092259;28;20212;-68
2021/12/31 04:37:57;;;;;;;16.50;9.17;;;7.80;99.90;;;;;;5098033;28;20201;-69
2021/12/31 04:40:24;;;;;;;22.27;10.13;;;7.80;99.90;;;;;;5092722;28;20530;-69
2021/12/31 04:42:51;;;;;;;17.57;9.30;;;7.80;99.90;;;;;;5092347;28;20494;-68
2021/12/31 04:45:18;;;;;;;17.63;9.20;;;7.90;99.90;;;;;;5092256;28;20642;-68
2021/12/31 04:47:45;;;;;;;17.57;9.47;;;7.90;99.90;;;;;;5092707;28;20578;-69
2021/12/31 04:50:13;;;;;;;16.17;8.87;;;7.90;99.90;;;;;;5093320;28;20193;-69
2021/12/31 04:52:40;;;;;;;17.53;9.17;;;7.90;99.90;;;;;;5097860;28;20691;-69
2021/12/31 04:55:10;;;;;;;15.83;9.30;;;8.00;99.90;;;;;;5094778;28;20587;-68
2021/12/31 04:57:38;;;;;;;15.83;9.23;;;8.00;99.90;;;;;;5092114;28;20604;-69
2021/12/31 05:00:06;;;;;;;17.13;8.97;;;8.10;99.90;;;;;;5091761;28;20224;-68
2021/12/31 05:02:33;;;;;;;16.17;9.23;;;8.10;99.90;;;;;;5092181;28;20656;-68
2021/12/31 05:05:01;;;;;;;15.50;9.40;;;8.10;99.90;;;;;;5091723;28;20299;-70
2021/12/31 05:07:28;;;;;;;22.30;9.07;;;8.20;99.90;;;;;;5091848;28;20208;-69
2021/12/31 05:09:55;;;;;;;22.80;10.37;;;8.20;99.90;;;;;;5092251;28;20548;-71
2021/12/31 05:12:26;;;;;;;18.07;9.37;;;8.20;99.90;;;;;;5092028;28;20201;-68
2021/12/31 05:14:54;;;;;;;15.83;8.73;;;8.30;99.90;;;;;;5091491;28;20217;-69
2021/12/31 05:17:21;;;;;;;16.07;9.13;;;8.30;99.90;;;;;;5091502;28;20654;-69
2021/12/31 05:19:48;;;;;;;17.90;9.07;;;8.30;99.90;;;;;;5090260;28;20234;-68
2021/12/31 05:22:16;;;;;;;16.37;9.50;;;8.30;99.90;;;;;;5091630;28;20201;-69
2021/12/31 05:24:43;;;;;;;15.13;8.93;;;8.30;99.90;;;;;;5091468;28;20204;-69
2021/12/31 05:27:10;;;;;;;13.50;8.27;;;8.40;99.90;;;;;;5089960;28;20212;-68
2021/12/31 05:29:38;;;;;;;19.40;9.57;;;8.40;99.90;;;;;;5089964;28;20600;-68
2021/12/31 05:32:06;;;;;;;15.73;9.73;;;8.40;99.90;;;;;;5091364;28;20294;-69
2021/12/31 05:34:33;;;;;;;16.10;9.10;;;8.40;99.90;;;;;;5090988;28;20200;-69
2021/12/31 05:37:00;;;;;;;14.53;9.07;;;8.50;99.90;;;;;;5090995;28;20215;-69
2021/12/31 05:39:27;;;;;;;14.93;9.57;;;8.50;99.90;;;;;;5090705;28;20227;-69
2021/12/31 05:41:54;;;;;;;16.67;9.37;;;8.50;99.90;;;;;;5091289;28;20213;-69
2021/12/31 05:44:22;;;;;;;14.50;9.77;;;8.50;99.90;;;;;;5090932;28;20656;-68
2021/12/31 05:46:52;;;;;;;15.13;9.23;;;8.50;99.90;;;;;;5093234;28;20212;-68
2021/12/31 05:49:20;;;;;;;19.70;9.20;;;8.50;99.90;;;;;;5092300;28;20311;-68
2021/12/31 05:51:47;;;;;;;17.43;10.67;;;8.50;99.90;;;;;;5091629;28;20208;-68
2021/12/31 05:54:14;;;;;;;19.77;9.37;;;8.60;99.90;;;;;;5091063;28;20299;-69
2021/12/31 05:56:40;;;;;;;16.00;9.97;;;8.60;99.90;;;;;;5090337;28;20703;-70
2021/12/31 05:59:07;;;;;;;16.17;9.57;;;8.60;99.90;;;;;;5090802;28;20296;-67
2021/12/31 06:01:34;;;;;;;16.00;9.53;;;8.60;99.90;;;;;;5102408;28;20204;-67
2021/12/31 06:04:03;;;;;;;21.77;9.90;;;8.60;99.90;;;;;;5091102;28;20667;-67
2021/12/31 06:06:29;;;;;;;16.37;9.57;;;8.70;99.90;;;;;;5091101;28;20205;-69
2021/12/31 06:08:56;;;;;;;20.57;10.80;;;8.70;99.90;;;;;;5090435;28;20272;-68
2021/12/31 06:11:23;;;;;;;16.83;10.10;;;8.70;99.90;;;;;;5090800;28;20207;-68
2021/12/31 06:14:00;;;;;;;16.50;10.77;;;8.70;99.90;;;;;;5090242;28;20243;-67
2021/12/31 06:16:27;;;;;;;16.07;10.17;;;8.70;99.90;;;;;;5082009;28;20201;-68
2021/12/31 06:18:54;;;;;;;18.63;10.80;;;8.70;99.90;;;;;;5090472;28;20220;-68
2021/12/31 06:21:22;;;;;;;21.20;11.40;;;8.70;99.90;;;;;;5089885;28;20232;-68
2021/12/31 06:23:49;;;;;;;19.00;11.20;;;8.70;99.90;;;;;;5089664;28;20215;-68
2021/12/31 06:26:16;;;;;;;15.67;11.00;;;8.70;99.90;;;;;;5090437;28;20207;-67
2021/12/31 06:28:43;;;;;;;16.33;11.20;;;8.80;99.90;;;;;;5090573;28;20322;-67
2021/12/31 06:31:09;;;;;;;17.17;10.43;;;8.80;99.90;;;;;;5090114;28;20201;-69
2021/12/31 06:33:36;;;;;;;16.93;10.33;;;8.80;99.90;;;;;;5090342;28;20307;-68
2021/12/31 06:36:03;;;;;;;15.37;9.37;;;8.80;99.90;;;;;;5090276;28;20292;-67
2021/12/31 06:38:32;;;;;;;12.27;8.37;;;8.80;99.90;;;;;;5090173;28;20208;-68
2021/12/31 06:40:58;;;;;;;13.60;8.87;;;8.80;99.90;;;;;;5093371;28;21291;-67
2021/12/31 06:43:25;;;;;;;12.37;9.10;;;8.80;99.90;;;;;;5094199;28;20238;-68
2021/12/31 06:45:52;;;;;;;13.57;8.87;;;8.80;99.90;;;;;;5094333;28;20239;-68
2021/12/31 06:48:19;;;;;;;12.43;8.80;;;8.80;99.90;;;;;;5094221;28;20205;-68
2021/12/31 06:50:46;;;;;;;12.47;8.23;;;8.90;99.90;;;;;;5094196;28;20276;-68
2021/12/31 06:53:13;;;;;;;13.57;8.37;;;8.90;99.90;;;;;;5091446;28;20205;-68
2021/12/31 06:55:41;;;;;;;12.60;7.67;;;8.90;99.90;;;;;;5093324;28;20251;-68
2021/12/31 06:58:08;;;;;;;12.00;8.67;;;9.00;99.90;;;;;;5092687;28;20752;-67
2021/12/31 07:00:35;;;;;;;10.70;7.03;;;8.90;99.90;;;;;;5093230;28;20231;-68
2021/12/31 07:03:05;;;;;;;11.83;7.63;;;9.00;99.90;;;;;;5093914;28;20209;-68
2021/12/31 07:05:32;;;;;;;12.97;7.10;;;9.00;99.90;;;;;;5093136;28;20232;-68
2021/12/31 07:08:00;;;;;;;10.13;6.43;;;9.00;99.90;;;;;;5093779;28;20244;-67
2021/12/31 07:10:28;;;;;;;8.17;6.03;;;9.00;99.90;;;;;;5093527;28;20258;-68
2021/12/31 07:13:00;;;;;;;8.77;6.10;;;9.10;99.90;;;;;;5093873;28;20296;-68
2021/12/31 07:15:27;;;;;;;7.00;5.37;;;9.10;99.90;;;;;;5094733;28;20313;-68
2021/12/31 07:17:54;;;;;;;7.27;5.43;;;9.10;99.90;;;;;;5093419;28;20242;-68
2021/12/31 07:20:22;;;;;;;5.60;4.73;;;9.10;99.90;;;;;;5093954;28;20491;-67
2021/12/31 07:22:50;;;;;;;6.63;5.03;;;9.10;99.90;;;;;;5094131;28;20647;-68
2021/12/31 07:25:17;;;;;;;7.97;5.50;;;9.20;99.90;;;;;;5093440;28;20209;-68
2021/12/31 07:27:44;;;;;;;6.90;5.30;;;9.20;99.90;;;;;;5093205;28;20212;-68
2021/12/31 07:30:16;;;;;;;7.27;5.30;;;9.30;99.90;;;;;;5093126;28;20211;-73
2021/12/31 07:32:43;;;;;;;7.80;6.17;;;9.30;99.90;;;;;;5093346;28;20211;-72
2021/12/31 07:35:10;;;;;;;8.80;5.57;;;9.30;99.90;;;;;;5092035;28;20284;-73
2021/12/31 07:37:38;;;;;;;9.33;6.53;;;9.30;99.90;;;;;;5093386;28;20247;-71
2021/12/31 07:40:07;;;;;;;7.63;6.23;;;9.30;99.90;;;;;;5088408;28;20236;-72
2021/12/31 07:42:34;;;;;;;8.07;5.70;;;9.40;99.90;;;;;;5093238;28;20604;-72
2021/12/31 07:45:01;;;;;;;7.73;5.40;;;9.40;99.90;;;;;;5092798;28;20204;-72
2021/12/31 07:47:30;;;;;;;6.40;5.23;;;9.40;99.90;;;;;;5087391;28;20295;-74
2021/12/31 07:49:57;;;;;;;6.93;5.60;;;9.40;99.90;;;;;;5093303;28;20834;-72
2021/12/31 07:52:23;;;;;;;7.63;5.23;;;9.50;99.90;;;;;;5086556;28;20205;-72
2021/12/31 07:54:51;;;;;;;7.93;5.40;;;9.50;99.90;;;;;;5085442;28;20209;-71
2021/12/31 07:57:17;;;;;;;6.83;5.37;;;9.40;99.90;;;;;;5092060;28;20227;-70
2021/12/31 07:59:44;;;;;;;10.30;4.83;;;9.50;99.90;;;;;;5089755;28;20212;-70
2021/12/31 08:02:11;;;;;;;5.93;4.93;;;9.50;99.90;;;;;;5092900;28;20204;-71
2021/12/31 08:04:40;;;;;;;5.87;5.00;;;9.50;99.90;;;;;;5092061;28;20288;-71
2021/12/31 08:07:07;;;;;;;5.37;4.70;;;9.50;99.90;;;;;;5091346;28;20213;-72
2021/12/31 08:09:33;;;;;;;6.17;4.93;;;9.50;99.90;;;;;;5092782;28;20228;-72
2021/12/31 08:12:00;;;;;;;7.10;5.20;;;9.50;99.90;;;;;;5092755;28;20204;-69
2021/12/31 08:14:27;;;;;;;6.70;5.30;;;9.60;99.90;;;;;;5092124;28;20211;-72
2021/12/31 08:16:54;;;;;;;6.83;5.47;;;9.60;99.90;;;;;;5091448;28;20256;-69
2021/12/31 08:19:21;;;;;;;6.60;4.97;;;9.60;99.90;;;;;;5092806;28;20208;-76
2021/12/31 08:21:49;;;;;;;6.50;4.90;;;9.60;99.90;;;;;;5093242;28;20228;-70
2021/12/31 08:24:16;;;;;;;5.07;4.47;;;9.60;99.90;;;;;;5091822;28;20573;-74
2021/12/31 08:26:43;;;;;;;6.87;4.97;;;9.60;99.90;;;;;;5094762;28;20284;-76
2021/12/31 08:29:12;;;;;;;5.70;4.60;;;9.60;99.90;;;;;;5092908;28;20322;-71
2021/12/31 08:31:40;;;;;;;4.77;4.00;;;9.60;99.90;;;;;;5093408;28;20604;-72
2021/12/31 08:34:08;;;;;;;5.47;4.17;;;9.70;99.90;;;;;;5093462;28;20226;-71
2021/12/31 08:36:35;;;;;;;6.00;4.27;;;9.60;99.90;;;;;;5093999;28;20205;-70
2021/12/31 08:39:05;;;;;;;5.73;4.30;;;9.70;99.90;;;;;;5095160;28;20210;-70
2021/12/31 08:41:31;;;;;;;4.80;4.30;;;9.70;99.90;;;;;;5094809;28;20227;-70
2021/12/31 08:43:58;;;;;;;5.53;3.97;;;9.70;99.90;;;;;;5094368;28;20718;-70
2021/12/31 08:46:25;;;;;;;4.37;3.47;;;9.70;99.90;;;;;;5092126;28;20227;-69
2021/12/31 08:48:52;;;;;;;3.83;3.33;;;9.70;99.90;;;;;;5092254;28;20213;-72
2021/12/31 08:51:19;;;;;;;4.03;3.63;;;9.70;99.90;;;;;;5091299;28;20204;-70
2021/12/31 08:53:46;;;;;;;4.53;3.63;;;9.80;99.90;;;;;;5091057;28;20215;-72
2021/12/31 08:56:14;;;;;;;6.20;4.30;;;9.80;99.90;;;;;;5088868;28;20665;-70
2021/12/31 08:58:41;;;;;;;4.27;3.40;;;9.80;99.90;;;;;;5091392;28;20312;-71
2021/12/31 09:01:08;;;;;;;4.37;3.57;;;9.80;99.90;;;;;;5092021;28;20263;-74
2021/12/31 09:03:35;;;;;;;5.83;3.60;;;9.80;99.90;;;;;;5091438;28;20196;-70
2021/12/31 09:06:02;;;;;;;4.57;3.93;;;;;;;;;;5088638;28;20312;-66
2021/12/31 09:08:29;;;;;;;4.67;3.60;;;9.90;99.90;;;;;;5089486;28;20674;-66
2021/12/31 09:10:57;;;;;;;6.67;4.40;;;9.90;99.90;;;;;;5090450;28;20236;-67
2021/12/31 09:13:27;;;;;;;4.73;4.10;;;10.00;99.90;;;;;;5090506;28;20200;-70
2021/12/31 09:15:54;;;;;;;7.97;4.23;;;9.90;99.90;;;;;;5090655;28;20200;-68
2021/12/31 09:18:21;;;;;;;5.10;4.33;;;10.00;99.90;;;;;;5091418;28;20208;-69
2021/12/31 09:20:48;;;;;;;5.07;3.80;;;10.00;99.90;;;;;;5091912;28;20274;-70
2021/12/31 09:23:15;;;;;;;5.27;4.17;;;10.00;99.90;;;;;;5090034;28;20287;-68
2021/12/31 09:25:42;;;;;;;5.43;4.13;;;10.00;99.90;;;;;;5090814;28;20205;-69
2021/12/31 09:28:09;;;;;;;5.17;4.27;;;10.00;99.90;;;;;;5089875;28;20325;-68
2021/12/31 09:30:38;;;;;;;5.40;4.10;;;10.00;99.90;;;;;;5089381;28;20572;-68
2021/12/31 09:33:05;;;;;;;6.07;4.40;;;10.00;99.90;;;;;;5087987;28;20208;-68
2021/12/31 09:35:33;;;;;;;5.50;4.03;;;10.00;99.90;;;;;;5090526;28;20266;-68
2021/12/31 09:38:06;;;;;;;4.17;3.57;;;10.00;99.90;;;;;;5090281;28;20701;-70
2021/12/31 09:40:33;;;;;;;5.73;4.13;;;10.00;99.90;;;;;;5090174;28;20201;-73
2021/12/31 09:43:07;;;;;;;3.83;3.10;;;10.10;99.90;;;;;;5090480;28;20437;-76
2021/12/31 09:45:38;;;;;;;5.43;3.77;;;10.00;99.90;;;;;;5089887;28;20233;-75
2021/12/31 09:48:08;;;;;;;5.27;3.30;;;10.00;99.90;;;;;;5089455;28;20219;-76
2021/12/31 09:50:36;;;;;;;6.23;4.20;;;10.00;99.90;;;;;;5095809;28;20283;-74
2021/12/31 09:53:06;;;;;;;7.17;3.63;;;10.00;99.90;;;;;;5087931;28;20208;-75
2021/12/31 09:55:37;;;;;;;4.40;3.37;;;10.10;99.90;;;;;;5087946;28;20286;-74
2021/12/31 09:58:04;;;;;;;5.50;3.70;;;10.10;99.90;;;;;;5091916;28;20279;-74
2021/12/31 10:00:31;;;;;;;5.60;4.00;;;10.10;99.90;;;;;;5089063;28;20200;-74
2021/12/31 10:03:13;;;;;;;3.97;3.50;;;10.10;99.90;;;;;;5089856;28;20213;-73
2021/12/31 10:05:42;;;;;;;5.40;3.60;;;10.10;99.90;;;;;;5089958;28;20591;-74
2021/12/31 10:08:17;;;;;;;4.47;3.90;;;10.10;99.90;;;;;;5091370;28;20208;-74
2021/12/31 10:10:44;;;;;;;3.80;3.43;;;10.10;99.90;;;;;;5091620;28;20282;-74
2021/12/31 10:13:11;;;;;;;5.03;3.83;;;10.20;99.90;;;;;;5090415;28;20205;-75
2021/12/31 10:15:41;;;;;;;3.97;3.43;;;10.20;99.90;;;;;;5091900;28;20208;-75
2021/12/31 10:18:15;;;;;;;5.70;3.60;;;10.20;99.90;;;;;;5081559;28;20228;-75
2021/12/31 10:20:49;;;;;;;5.27;3.77;;;10.20;99.90;;;;;;5084942;28;20731;-74
2021/12/31 10:23:17;;;;;;;4.17;3.77;;;10.20;99.90;;;;;;5091355;28;20218;-74
2021/12/31 10:25:44;;;;;;;7.57;4.53;;;10.30;99.90;;;;;;5091939;28;20581;-74
2021/12/31 10:28:13;;;;;;;4.67;4.23;;;10.30;99.90;;;;;;5083901;28;20244;-73
2021/12/31 10:30:40;;;;;;;5.63;4.50;;;10.30;99.90;;;;;;5093507;28;20276;-72
2021/12/31 10:33:08;;;;;;;5.23;4.30;;;10.30;99.90;;;;;;5094258;28;20236;-74
2021/12/31 10:35:41;;;;;;;5.47;4.47;;;10.30;99.90;;;;;;5096053;28;20215;-73
2021/12/31 10:38:11;;;;;;;5.20;4.40;;;10.30;99.90;;;;;;5096130;28;20201;-74
2021/12/31 10:40:41;;;;;;;6.47;5.07;;;10.40;99.90;;;;;;5096494;28;20287;-74
2021/12/31 10:43:11;;;;;;;5.73;5.13;;;10.40;99.90;;;;;;5095962;28;20204;-74
2021/12/31 10:45:38;;;;;;;6.63;4.73;;;10.40;99.90;;;;;;5087147;28;20680;-74
2021/12/31 10:48:09;;;;;;;5.97;5.17;;;10.40;99.90;;;;;;5078150;28;20395;-74
2021/12/31 10:50:37;;;;;;;6.70;5.70;;;10.40;99.90;;;;;;5091671;28;20197;-75
2021/12/31 10:53:11;;;;;;;5.83;5.20;;;10.40;99.90;;;;;;5090350;28;20322;-74
2021/12/31 10:55:40;;;;;;;8.30;5.43;;;10.50;99.90;;;;;;5097417;28;20216;-73
2021/12/31 10:58:11;;;;;;;6.23;5.20;;;10.40;99.90;;;;;;5092915;28;20227;-73
2021/12/31 11:00:41;;;;;;;7.23;6.07;;;10.50;99.90;;;;;;5093475;28;20633;-74
2021/12/31 11:03:09;;;;;;;7.23;6.53;;;10.50;99.90;;;;;;5097767;28;20214;-74
2021/12/31 11:05:36;;;;;;;6.73;6.03;;;10.50;99.90;;;;;;5090197;28;20213;-73
2021/12/31 11:08:07;;;;;;;8.17;6.60;;;10.50;99.90;;;;;;5093355;28;20723;-73
2021/12/31 11:10:36;;;;;;;7.97;6.90;;;10.50;99.90;;;;;;5093429;28;20243;-73
2021/12/31 11:13:11;;;;;;;7.60;6.90;;;10.50;99.90;;;;;;5084525;28;20206;-73
2021/12/31 11:15:38;;;;;;;7.83;6.80;;;10.50;99.90;;;;;;5092627;28;20219;-73
2021/12/31 11:18:05;;;;;;;8.47;7.30;;;10.50;99.90;;;;;;5092310;28;20284;-73
2021/12/31 11:20:33;;;;;;;10.13;7.30;;;10.50;99.90;;;;;;5091600;28;20246;-74
2021/12/31 11:23:01;;;;;;;10.13;8.13;;;10.60;99.90;;;;;;5092843;28;20262;-73
2021/12/31 11:25:30;;;;;;;8.87;7.67;;;10.60;99.90;;;;;;5092279;28;20211;-73
2021/12/31 11:27:58;;;;;;;8.63;7.63;;;10.60;99.90;;;;;;5094221;28;20704;-73
2021/12/31 11:30:27;;;;;;;9.70;8.20;;;10.60;99.90;;;;;;5092706;28;20213;-73
2021/12/31 11:32:57;;;;;;;9.73;8.73;;;10.60;99.90;;;;;;5092863;28;20200;-73
2021/12/31 11:35:36;;;;;;;9.90;8.37;;;10.60;99.90;;;;;;5096572;28;20204;-72
2021/12/31 11:38:04;;;;;;;11.73;8.83;;;10.70;99.90;;;;;;5082375;28;20737;-73
2021/12/31 11:40:34;;;;;;;12.03;8.67;;;10.70;99.90;;;;;;5091296;28;20205;-73
2021/12/31 11:43:26;;;;;;;10.00;8.33;;;10.70;99.90;;;;;;5079999;28;20210;-74
2021/12/31 11:46:32;;;;;;;11.50;8.10;;;10.70;99.90;;;;;;5075356;28;20296;-74
2021/12/31 11:49:01;;;;;;;10.77;8.60;;;10.70;99.90;;;;;;5074197;28;20285;-74
2021/12/31 11:51:33;;;;;;;10.40;8.63;;;10.80;99.90;;;;;;5075505;28;20204;-72
2021/12/31 11:54:19;;;;;;;8.53;7.63;;;10.70;99.90;;;;;;5082490;28;20280;-73
2021/12/31 11:57:09;;;;;;;9.40;7.93;;;10.80;99.90;;;;;;5077428;28;20243;-73
2021/12/31 11:59:38;;;;;;;11.60;8.47;;;10.80;99.90;;;;;;5074028;28;20205;-74
2021/12/31 12:02:17;;;;;;;8.73;7.77;;;10.80;99.90;;;;;;5081554;28;20224;-73
2021/12/31 12:05:12;;;;;;;10.63;8.03;;;10.90;99.90;;;;;;5089905;28;20204;-73
2021/12/31 12:07:40;;;;;;;10.13;7.93;;;10.80;99.90;;;;;;5091705;28;20205;-74
2021/12/31 12:10:27;;;;;;;10.50;8.27;;;10.80;99.90;;;;;;5091564;28;20201;-72
2021/12/31 12:12:57;;;;;;;9.47;7.97;;;10.90;99.90;;;;;;5090876;28;20199;-73
2021/12/31 12:15:31;;;;;;;9.93;7.87;;;10.90;99.90;;;;;;5091370;28;20201;-73
2021/12/31 12:18:02;;;;;;;9.83;8.10;;;10.90;99.90;;;;;;5091355;28;20210;-73
2021/12/31 12:20:45;;;;;;;10.00;8.70;;;10.90;99.90;;;;;;5090073;28;20288;-73
2021/12/31 12:23:13;;;;;;;10.33;8.57;;;10.90;99.90;;;;;;5091449;28;20472;-72
2021/12/31 12:25:41;;;;;;;10.60;8.77;;;10.90;99.90;;;;;;5091092;28;20197;-73
2021/12/31 12:28:11;;;;;;;10.00;8.63;;;10.90;99.90;;;;;;5092974;28;20232;-75
2021/12/31 12:30:43;;;;;;;11.83;9.40;;;10.90;99.90;;;;;;5093110;28;20200;-73
2021/12/31 12:33:17;;;;;;;10.50;8.70;;;10.90;99.90;;;;;;5089730;28;20197;-73
2021/12/31 12:35:45;;;;;;;11.27;8.83;;;10.90;99.90;;;;;;5084541;28;20209;-74
2021/12/31 12:38:17;;;;;;;12.07;9.47;;;11.00;99.90;;;;;;5090799;28;20215;-73
2021/12/31 12:40:45;;;;;;;12.07;10.07;;;11.00;99.90;;;;;;5091060;28;20235;-72
2021/12/31 12:43:16;;;;;;;11.47;9.53;;;11.00;99.90;;;;;;5091507;28;20232;-72
2021/12/31 12:45:45;;;;;;;13.70;10.20;;;11.00;99.90;;;;;;5090878;28;20584;-72
2021/12/31 12:48:12;;;;;;;13.23;9.83;;;11.00;99.90;;;;;;5091802;28;20211;-74
2021/12/31 12:50:46;;;;;;;10.83;9.70;;;11.00;99.90;;;;;;5103719;28;20211;-74